Time;durP1;ratioP1;P1;durP2;ratioP2;P2;SDS_P1;SDS_P2;PMS_P1;PMS_P2;Temp;Humidity;BMP_temperature;BMP_pressure;BME280_temperature;BME280_humidity;BME280_pressure;Samples;Min_cycle;Max_cycle;Signal;HPM_P1;HPM_P2
2023/08/24 00:01:32;0.00;0.00;0.62;0.00;0.00;0.62;1.90;1.70;;;32.40;27.00;;;;;;2264605;61;20430;-55
2023/08/24 00:04:17;0.00;0.00;0.62;0.00;0.00;0.62;2.43;1.97;;;32.40;27.10;;;;;;2264671;61;20372;-53
2023/08/24 00:07:01;0.00;0.00;0.62;0.00;0.00;0.62;2.10;1.90;;;32.40;27.10;;;;;;2264301;61;20363;-50
2023/08/24 00:09:46;0.00;0.00;0.62;0.00;0.00;0.62;5.03;2.53;;;32.40;27.10;;;;;;2264486;61;20792;-52
2023/08/24 00:12:34;0.00;0.00;0.62;0.00;0.00;0.62;2.67;2.17;;;32.40;27.10;;;;;;2264385;61;20344;-55
2023/08/24 00:15:19;0.00;0.00;0.62;0.00;0.00;0.62;2.60;2.20;;;32.40;27.10;;;;;;2263934;61;20832;-51
2023/08/24 00:18:05;0.00;0.00;0.62;0.00;0.00;0.62;2.40;1.53;;;32.40;27.10;;;;;;2264433;61;20437;-55
2023/08/24 00:20:50;0.00;0.00;0.62;0.00;0.00;0.62;2.10;1.87;;;32.30;27.10;;;;;;2264983;61;20464;-53
2023/08/24 00:23:35;0.00;0.00;0.62;0.00;0.00;0.62;3.90;2.00;;;32.30;27.10;;;;;;2264320;61;20448;-51
2023/08/24 00:26:19;0.00;0.00;0.62;0.00;0.00;0.62;2.90;2.10;;;32.30;27.10;;;;;;2264780;61;20388;-54
2023/08/24 00:29:04;0.00;0.00;0.62;0.00;0.00;0.62;2.60;2.23;;;32.30;27.10;;;;;;2264312;61;20371;-56
2023/08/24 00:31:48;0.00;0.00;0.62;0.00;0.00;0.62;2.20;2.00;;;32.30;27.10;;;;;;2264464;61;20383;-55
2023/08/24 00:34:34;0.00;0.00;0.62;0.00;0.00;0.62;1.93;1.73;;;32.30;27.10;;;;;;2264132;61;20380;-55
2023/08/24 00:37:19;0.00;0.00;0.62;0.00;0.00;0.62;3.60;2.10;;;32.30;27.10;;;;;;2264103;61;20701;-53
2023/08/24 00:40:09;0.00;0.00;0.62;0.00;0.00;0.62;3.23;2.23;;;32.30;27.10;;;;;;2264755;61;20440;-57
2023/08/24 00:42:54;0.00;0.00;0.62;0.00;0.00;0.62;3.77;2.53;;;32.30;27.10;;;;;;2264491;61;20365;-59
2023/08/24 00:45:39;0.00;0.00;0.62;0.00;0.00;0.62;2.87;1.83;;;32.30;27.20;;;;;;2264446;61;20379;-56
2023/08/24 00:48:25;0.00;0.00;0.62;0.00;0.00;0.62;2.33;2.10;;;32.30;27.20;;;;;;2264687;61;20458;-56
2023/08/24 00:51:14;0.00;0.00;0.62;0.00;0.00;0.62;2.53;1.77;;;32.20;27.20;;;;;;2264397;61;21056;-54
2023/08/24 00:53:58;0.00;0.00;0.62;0.00;0.00;0.62;3.33;2.20;;;32.20;27.20;;;;;;2264073;61;20368;-51
2023/08/24 00:56:43;0.00;0.00;0.62;0.00;0.00;0.62;2.20;1.77;;;32.20;27.20;;;;;;2264256;61;20460;-50
2023/08/24 00:59:28;0.00;0.00;0.62;0.00;0.00;0.62;2.23;2.03;;;32.20;27.20;;;;;;2263957;61;20359;-57
2023/08/24 01:02:13;0.00;0.00;0.62;0.00;0.00;0.62;4.67;2.20;;;32.20;27.20;;;;;;2264387;61;20440;-51
2023/08/24 01:04:58;0.00;0.00;0.62;0.00;0.00;0.62;3.57;2.20;;;32.20;27.20;;;;;;2264289;61;20981;-52
2023/08/24 01:07:44;0.00;0.00;0.62;0.00;0.00;0.62;2.27;1.73;;;32.20;27.20;;;;;;2263952;61;20357;-52
2023/08/24 01:10:37;0.00;0.00;0.62;0.00;0.00;0.62;2.00;1.60;;;32.20;27.20;;;;;;2264532;61;20896;-54
2023/08/24 01:13:32;0.00;0.00;0.62;0.00;0.00;0.62;2.50;1.90;;;32.20;27.20;;;;;;2263864;61;20396;-53
2023/08/24 01:16:21;0.00;0.00;0.62;0.00;0.00;0.62;2.27;1.77;;;32.20;27.20;;;;;;2264421;61;20407;-51
2023/08/24 01:19:10;0.00;0.00;0.62;0.00;0.00;0.62;2.83;1.83;;;32.20;27.20;;;;;;2263899;61;20384;-53
2023/08/24 01:21:57;0.00;0.00;0.62;0.00;0.00;0.62;2.90;1.83;;;32.20;27.20;;;;;;2264090;61;20367;-54
2023/08/24 01:24:50;0.00;0.00;0.62;0.00;0.00;0.62;2.40;1.80;;;32.20;27.20;;;;;;2263839;61;20447;-56
2023/08/24 01:27:39;0.00;0.00;0.62;0.00;0.00;0.62;2.33;1.87;;;32.20;27.80;;;;;;2264162;61;20906;-54
2023/08/24 01:30:24;0.00;0.00;0.62;0.00;0.00;0.62;2.20;1.90;;;32.20;27.30;;;;;;2262762;61;20369;-56
2023/08/24 01:33:11;0.00;0.00;0.62;0.00;0.00;0.62;2.20;1.80;;;32.10;27.20;;;;;;2260021;61;20431;-54
2023/08/24 01:35:56;0.00;0.00;0.62;0.00;0.00;0.62;2.57;1.70;;;32.10;27.20;;;;;;2259767;61;20622;-53
2023/08/24 01:38:41;0.00;0.00;0.62;0.00;0.00;0.62;2.10;1.60;;;32.10;27.20;;;;;;2263465;58;20432;-56
2023/08/24 01:41:33;0.00;0.00;0.62;0.00;0.00;0.62;3.67;2.03;;;32.10;27.20;;;;;;2264707;61;20364;-50
2023/08/24 01:44:21;0.00;0.00;0.62;0.00;0.00;0.62;2.20;1.53;;;32.10;27.20;;;;;;2262997;61;20768;-56
2023/08/24 01:47:11;0.00;0.00;0.62;0.00;0.00;0.62;1.80;1.40;;;32.10;27.20;;;;;;2264577;61;20881;-52
2023/08/24 01:49:56;0.00;0.00;0.62;0.00;0.00;0.62;2.57;2.23;;;32.10;27.20;;;;;;2264694;61;20407;-54
2023/08/24 01:52:42;0.00;0.00;0.62;0.00;0.00;0.62;2.30;1.90;;;32.10;27.20;;;;;;2264320;61;20355;-54
2023/08/24 01:55:27;0.00;0.00;0.62;0.00;0.00;0.62;2.00;1.67;;;32.10;27.20;;;;;;2264366;61;20438;-54
2023/08/24 01:58:12;0.00;0.00;0.62;0.00;0.00;0.62;2.50;1.80;;;32.10;27.20;;;;;;2263402;61;20391;-53
2023/08/24 02:00:58;0.00;0.00;0.62;0.00;0.00;0.62;2.33;1.70;;;32.10;27.20;;;;;;2264204;61;20360;-57
2023/08/24 02:03:42;0.00;0.00;0.62;0.00;0.00;0.62;4.20;2.37;;;32.10;27.30;;;;;;2263898;61;20884;-53
2023/08/24 02:06:27;0.00;0.00;0.62;0.00;0.00;0.62;2.13;1.70;;;32.10;27.30;;;;;;2263446;61;20398;-56
2023/08/24 02:09:12;0.00;0.00;0.62;0.00;0.00;0.62;2.10;1.80;;;32.10;27.30;;;;;;2263872;61;20352;-49
2023/08/24 02:11:57;0.00;0.00;0.62;0.00;0.00;0.62;1.83;1.30;;;32.10;27.30;;;;;;2264210;61;20626;-51
2023/08/24 02:14:41;0.00;0.00;0.62;0.00;0.00;0.62;3.37;2.20;;;32.10;27.30;;;;;;2262988;61;20407;-56
2023/08/24 02:17:27;0.00;0.00;0.62;0.00;0.00;0.62;2.37;2.00;;;32.10;27.30;;;;;;2263857;61;20387;-52
2023/08/24 02:20:13;0.00;0.00;0.62;0.00;0.00;0.62;2.30;1.90;;;32.00;27.20;;;;;;2263527;61;20798;-50
2023/08/24 02:22:57;0.00;0.00;0.62;0.00;0.00;0.62;2.10;1.40;;;32.10;27.30;;;;;;2264469;61;20888;-55
2023/08/24 02:25:43;0.00;0.00;0.62;0.00;0.00;0.62;4.13;1.87;;;32.00;27.20;;;;;;2263848;61;20392;-55
2023/08/24 02:28:28;0.00;0.00;0.62;0.00;0.00;0.62;2.10;1.60;;;32.10;27.30;;;;;;2263338;61;20368;-53
2023/08/24 02:31:12;0.00;0.00;0.62;0.00;0.00;0.62;2.47;2.10;;;32.00;27.30;;;;;;2264284;61;20419;-56
2023/08/24 02:33:59;0.00;0.00;0.62;0.00;0.00;0.62;2.20;1.50;;;32.00;27.30;;;;;;2264119;61;20375;-56
2023/08/24 02:36:44;0.00;0.00;0.62;0.00;0.00;0.62;2.10;1.60;;;32.00;27.30;;;;;;2263980;61;20400;-51
2023/08/24 02:39:28;0.00;0.00;0.62;0.00;0.00;0.62;2.70;1.63;;;32.00;27.30;;;;;;2263851;61;20363;-58
2023/08/24 02:42:13;0.00;0.00;0.62;0.00;0.00;0.62;2.23;1.70;;;32.00;27.30;;;;;;2263749;61;20438;-54
2023/08/24 02:44:58;0.00;0.00;0.62;0.00;0.00;0.62;2.00;1.53;;;32.00;27.30;;;;;;2263708;61;20418;-54
2023/08/24 02:47:43;0.00;0.00;0.62;0.00;0.00;0.62;2.50;2.10;;;32.00;27.30;;;;;;2261066;61;20813;-53
2023/08/24 02:50:28;0.00;0.00;0.62;0.00;0.00;0.62;3.43;1.70;;;32.00;27.80;;;;;;2638432;45;20766;-52
2023/08/24 02:53:13;0.00;0.00;0.62;0.00;0.00;0.62;1.73;1.40;;;32.00;27.30;;;;;;2259691;61;20393;-51
2023/08/24 02:55:58;0.00;0.00;0.62;0.00;0.00;0.62;2.57;1.60;;;32.00;27.30;;;;;;2260164;61;20388;-51
2023/08/24 02:58:43;0.00;0.00;0.62;0.00;0.00;0.62;2.27;1.57;;;32.00;27.30;;;;;;2259438;61;20373;-54
2023/08/24 03:01:27;0.00;0.00;0.62;0.00;0.00;0.62;2.60;2.07;;;32.00;27.30;;;;;;2260333;61;20369;-50
2023/08/24 03:04:12;0.00;0.00;0.62;0.00;0.00;0.62;2.30;1.60;;;32.00;27.40;;;;;;2260135;61;20982;-54
2023/08/24 03:06:58;0.00;0.00;0.62;0.00;0.00;0.62;2.30;1.87;;;31.90;27.30;;;;;;2259971;61;20461;-55
2023/08/24 03:09:42;0.00;0.00;0.62;0.00;0.00;0.62;2.67;2.17;;;31.90;27.30;;;;;;2259418;61;20885;-53
2023/08/24 03:12:27;0.00;0.00;0.62;0.00;0.00;0.62;1.90;1.70;;;31.90;27.30;;;;;;2259449;61;20397;-55
2023/08/24 03:15:12;0.00;0.00;0.62;0.00;0.00;0.62;2.50;1.70;;;31.90;27.30;;;;;;2259833;61;20380;-50
2023/08/24 03:17:57;0.00;0.00;0.62;0.00;0.00;0.62;2.47;1.63;;;31.90;27.40;;;;;;2259485;61;20379;-53
2023/08/24 03:20:43;0.00;0.00;0.62;0.00;0.00;0.62;2.60;1.80;;;31.90;27.30;;;;;;2258606;61;20381;-53
2023/08/24 03:23:29;0.00;0.00;0.62;0.00;0.00;0.62;2.70;1.70;;;31.90;27.40;;;;;;2258923;61;20457;-52
2023/08/24 03:26:15;0.00;0.00;0.62;0.00;0.00;0.62;2.10;1.90;;;31.90;27.40;;;;;;2259822;61;20979;-54
2023/08/24 03:29:00;0.00;0.00;0.62;0.00;0.00;0.62;2.60;2.13;;;31.90;27.90;;;;;;2259656;61;20412;-53
2023/08/24 03:31:45;0.00;0.00;0.62;0.00;0.00;0.62;2.23;1.73;;;31.90;27.40;;;;;;2260437;61;20667;-50
2023/08/24 03:34:31;0.00;0.00;0.62;0.00;0.00;0.62;2.33;1.93;;;31.80;27.30;;;;;;2259468;61;20389;-53
2023/08/24 03:37:16;0.00;0.00;0.62;0.00;0.00;0.62;2.10;1.60;;;31.80;27.40;;;;;;2259342;61;20361;-53
2023/08/24 03:40:06;0.00;0.00;0.62;0.00;0.00;0.62;2.47;1.90;;;31.80;27.40;;;;;;2260219;61;20364;-53
2023/08/24 03:42:50;0.00;0.00;0.62;0.00;0.00;0.62;2.80;1.50;;;31.80;27.40;;;;;;2259733;61;20369;-55
2023/08/24 03:45:35;0.00;0.00;0.62;0.00;0.00;0.62;3.37;1.80;;;31.90;27.40;;;;;;2259878;61;20408;-55
2023/08/24 03:48:22;0.00;0.00;0.62;0.00;0.00;0.62;1.90;1.57;;;31.80;27.40;;;;;;2260373;61;20368;-55
2023/08/24 03:51:06;0.00;0.00;0.62;0.00;0.00;0.62;2.70;2.23;;;31.80;27.40;;;;;;2260088;61;20411;-53
2023/08/24 03:53:51;0.00;0.00;0.62;0.00;0.00;0.62;4.10;1.87;;;31.80;27.40;;;;;;2259744;61;20441;-56
2023/08/24 03:56:37;0.00;0.00;0.62;0.00;0.00;0.62;5.40;2.50;;;31.80;27.40;;;;;;2260576;61;20360;-56
2023/08/24 03:59:21;0.00;0.00;0.62;0.00;0.00;0.62;3.33;2.10;;;31.80;27.50;;;;;;2260238;61;20388;-53
2023/08/24 04:02:06;0.00;0.00;0.62;0.00;0.00;0.62;2.80;1.87;;;31.80;27.40;;;;;;2260296;61;20427;-55
2023/08/24 04:04:51;0.00;0.00;0.62;0.00;0.00;0.62;3.30;2.10;;;31.80;27.40;;;;;;2259328;61;20388;-56
2023/08/24 04:07:40;0.00;0.00;0.62;0.00;0.00;0.62;2.70;2.07;;;31.80;27.40;;;;;;2260392;61;20357;-51
2023/08/24 04:10:24;0.00;0.00;0.62;0.00;0.00;0.62;3.40;1.90;;;31.80;27.40;;;;;;2257405;61;20400;-54
2023/08/24 04:13:10;0.00;0.00;0.62;0.00;0.00;0.62;5.07;2.50;;;31.80;27.40;;;;;;2259865;61;20408;-54
2023/08/24 04:15:58;0.00;0.00;0.62;0.00;0.00;0.62;2.73;2.33;;;31.80;27.40;;;;;;2260291;61;20427;-53
2023/08/24 04:18:43;0.00;0.00;0.62;0.00;0.00;0.62;3.60;2.30;;;31.70;27.40;;;;;;2260207;61;20412;-55
2023/08/24 04:21:27;0.00;0.00;0.62;0.00;0.00;0.62;2.87;2.30;;;31.70;27.40;;;;;;2260355;61;20446;-57
2023/08/24 04:24:12;0.00;0.00;0.62;0.00;0.00;0.62;3.60;2.47;;;31.70;27.40;;;;;;2260448;61;20368;-52
2023/08/24 04:26:57;0.00;0.00;0.62;0.00;0.00;0.62;3.67;2.43;;;31.70;27.40;;;;;;2260288;61;21076;-53
2023/08/24 04:29:42;0.00;0.00;0.62;0.00;0.00;0.62;2.90;2.30;;;31.70;27.40;;;;;;2260596;61;20357;-54
2023/08/24 04:32:27;0.00;0.00;0.62;0.00;0.00;0.62;4.40;2.40;;;31.70;27.40;;;;;;2260704;61;20364;-52
2023/08/24 04:35:12;0.00;0.00;0.62;0.00;0.00;0.62;3.07;2.50;;;31.70;28.00;;;;;;2260004;61;20384;-53
2023/08/24 04:37:57;0.00;0.00;0.62;0.00;0.00;0.62;3.70;2.70;;;31.70;27.40;;;;;;2260437;61;21028;-53
2023/08/24 04:40:53;0.00;0.00;0.62;0.00;0.00;0.62;3.30;2.73;;;31.70;27.40;;;;;;2260408;61;20491;-50
2023/08/24 04:43:39;0.00;0.00;0.62;0.00;0.00;0.62;3.20;2.50;;;31.70;27.40;;;;;;2260505;61;20361;-56
2023/08/24 04:46:26;0.00;0.00;0.62;0.00;0.00;0.62;3.90;2.47;;;31.70;27.40;;;;;;2260521;61;20396;-53
2023/08/24 04:49:11;0.00;0.00;0.62;0.00;0.00;0.62;3.20;2.13;;;31.70;27.40;;;;;;2260128;61;20902;-54
2023/08/24 04:51:55;0.00;0.00;0.62;0.00;0.00;0.62;4.17;2.63;;;31.70;27.40;;;;;;2260489;61;20356;-57
2023/08/24 04:54:40;0.00;0.00;0.62;0.00;0.00;0.62;2.90;2.57;;;31.70;27.50;;;;;;2260282;61;20384;-50
2023/08/24 04:57:25;0.00;0.00;0.62;0.00;0.00;0.62;4.47;2.33;;;31.60;27.40;;;;;;2260119;61;20814;-54
2023/08/24 05:00:15;0.00;0.00;0.62;0.00;0.00;0.62;6.90;2.93;;;31.70;27.50;;;;;;2260571;61;20859;-53
2023/08/24 05:03:02;0.00;0.00;0.62;0.00;0.00;0.62;6.10;3.07;;;31.70;27.50;;;;;;2260312;61;20650;-53
2023/08/24 05:05:47;0.00;0.00;0.62;0.00;0.00;0.62;3.27;2.30;;;31.60;27.40;;;;;;2260476;61;20393;-50
2023/08/24 05:08:33;0.00;0.00;0.62;0.00;0.00;0.62;3.80;2.70;;;31.70;27.50;;;;;;2260426;61;20423;-55
2023/08/24 05:11:20;0.00;0.00;0.62;0.00;0.00;0.62;3.77;2.30;;;31.60;27.50;;;;;;2260154;61;20397;-50
2023/08/24 05:14:05;0.00;0.00;0.62;0.00;0.00;0.62;3.93;2.33;;;31.60;27.50;;;;;;2260272;61;20387;-53
2023/08/24 05:16:49;0.00;0.00;0.62;0.00;0.00;0.62;5.00;2.80;;;31.60;27.50;;;;;;2260631;61;20454;-55
2023/08/24 05:19:35;0.00;0.00;0.62;0.00;0.00;0.62;3.10;2.23;;;31.70;27.50;;;;;;2259679;61;20389;-55
2023/08/24 05:22:27;0.00;0.00;0.62;0.00;0.00;0.62;3.27;2.37;;;31.60;27.50;;;;;;2260631;61;20409;-51
2023/08/24 05:25:12;0.00;0.00;0.62;0.00;0.00;0.62;3.87;2.50;;;31.60;27.50;;;;;;2260000;61;20465;-51
2023/08/24 05:27:56;0.00;0.00;0.62;0.00;0.00;0.62;3.10;2.60;;;31.60;27.50;;;;;;2260622;61;20410;-53
2023/08/24 05:30:41;0.00;0.00;0.62;0.00;0.00;0.62;3.33;2.17;;;31.60;27.50;;;;;;2260634;61;20408;-54
2023/08/24 05:33:30;0.00;0.00;0.62;0.00;0.00;0.62;2.80;2.07;;;31.60;27.50;;;;;;2259417;61;20532;-55
2023/08/24 05:36:16;0.00;0.00;0.62;0.00;0.00;0.62;3.40;2.50;;;31.60;28.10;;;;;;2260604;61;20388;-55
2023/08/24 05:39:01;0.00;0.00;0.62;0.00;0.00;0.62;4.67;2.40;;;31.60;27.60;;;;;;2260393;61;20804;-56
2023/08/24 05:41:45;0.00;0.00;0.62;0.00;0.00;0.62;3.37;2.33;;;31.60;27.60;;;;;;2259934;61;20442;-51
2023/08/24 05:44:30;0.00;0.00;0.62;0.00;0.00;0.62;3.00;2.33;;;31.60;27.60;;;;;;2259643;61;20962;-53
2023/08/24 05:47:14;0.00;0.00;0.62;0.00;0.00;0.62;3.50;2.73;;;31.60;27.60;;;;;;2260262;61;20369;-52
2023/08/24 05:49:59;0.00;0.00;0.62;0.00;0.00;0.62;3.33;2.30;;;31.60;27.60;;;;;;2260084;61;20473;-53
2023/08/24 05:52:45;0.00;0.00;0.62;0.00;0.00;0.62;4.27;2.30;;;31.60;27.60;;;;;;2260428;61;20944;-51
2023/08/24 05:55:30;0.00;0.00;0.62;0.00;0.00;0.62;2.73;2.17;;;31.60;27.70;;;;;;2259654;61;20434;-52
2023/08/24 05:58:14;0.00;0.00;0.62;0.00;0.00;0.62;3.00;2.53;;;31.60;27.70;;;;;;2259829;61;20440;-53
2023/08/24 06:00:59;0.00;0.00;0.62;0.00;0.00;0.62;3.30;2.33;;;31.60;27.70;;;;;;2260522;61;20365;-53
2023/08/24 06:03:44;0.00;0.00;0.62;0.00;0.00;0.62;2.10;1.90;;;31.60;27.70;;;;;;2259718;61;20393;-54
2023/08/24 06:06:28;0.00;0.00;0.62;0.00;0.00;0.62;3.07;2.20;;;31.60;27.70;;;;;;2260483;61;20956;-51
2023/08/24 06:09:17;0.00;0.00;0.62;0.00;0.00;0.62;2.57;2.20;;;31.60;27.70;;;;;;2260301;61;20410;-55
2023/08/24 06:12:02;0.00;0.00;0.62;0.00;0.00;0.62;3.67;2.10;;;31.60;27.70;;;;;;2260182;61;20365;-53
2023/08/24 06:14:46;0.00;0.00;0.62;0.00;0.00;0.62;3.40;2.60;;;31.60;27.70;;;;;;2259972;61;20385;-57
2023/08/24 06:17:31;0.00;0.00;0.62;0.00;0.00;0.62;3.70;2.53;;;31.60;27.70;;;;;;2260062;61;20360;-49
2023/08/24 06:20:15;0.00;0.00;0.62;0.00;0.00;0.62;6.17;1.90;;;31.50;27.70;;;;;;2260512;61;20412;-56
2023/08/24 06:23:00;0.00;0.00;0.62;0.00;0.00;0.62;2.63;2.20;;;31.50;27.70;;;;;;2260186;61;20365;-56
2023/08/24 06:25:46;0.00;0.00;0.62;0.00;0.00;0.62;3.50;1.90;;;31.50;27.70;;;;;;2259928;61;20516;-53
2023/08/24 06:28:31;0.00;0.00;0.62;0.00;0.00;0.62;2.90;2.27;;;31.50;27.70;;;;;;2260364;61;20806;-51
2023/08/24 06:31:16;0.00;0.00;0.62;0.00;0.00;0.62;2.60;1.83;;;31.50;27.70;;;;;;2260242;61;20769;-53
2023/08/24 06:34:01;0.00;0.00;0.62;0.00;0.00;0.62;2.77;2.37;;;31.50;27.70;;;;;;2259671;61;20361;-51
2023/08/24 06:36:45;0.00;0.00;0.62;0.00;0.00;0.62;4.30;2.40;;;31.50;27.70;;;;;;2260210;61;20373;-53
2023/08/24 06:39:33;0.00;0.00;0.62;0.00;0.00;0.62;3.80;2.17;;;31.50;27.80;;;;;;2259693;61;20400;-55
2023/08/24 06:42:19;0.00;0.00;0.62;0.00;0.00;0.62;3.60;2.73;;;31.50;27.80;;;;;;2260239;61;20369;-51
2023/08/24 06:45:07;0.00;0.00;0.62;0.00;0.00;0.62;3.43;2.23;;;31.50;27.80;;;;;;2259383;61;20420;-53
2023/08/24 06:47:52;0.00;0.00;0.62;0.00;0.00;0.62;2.33;1.97;;;31.50;27.80;;;;;;2259750;61;20826;-52
2023/08/24 06:50:37;0.00;0.00;0.62;0.00;0.00;0.62;3.23;2.47;;;31.50;27.80;;;;;;2260290;61;20364;-56
2023/08/24 06:53:22;0.00;0.00;0.62;0.00;0.00;0.62;2.73;2.40;;;31.50;27.80;;;;;;2259859;61;20400;-51
2023/08/24 06:56:07;0.00;0.00;0.62;0.00;0.00;0.62;3.63;2.33;;;31.50;27.80;;;;;;2259536;61;20428;-53
2023/08/24 06:58:53;0.00;0.00;0.62;0.00;0.00;0.62;2.97;2.23;;;31.50;27.80;;;;;;2260082;61;20450;-49
2023/08/24 07:01:38;0.00;0.00;0.62;0.00;0.00;0.62;2.90;2.33;;;31.50;27.80;;;;;;2260043;61;20369;-54
2023/08/24 07:04:22;0.00;0.00;0.62;0.00;0.00;0.62;3.60;2.30;;;31.50;27.90;;;;;;2259811;61;20365;-56
2023/08/24 07:07:07;0.00;0.00;0.62;0.00;0.00;0.62;2.73;1.83;;;31.50;27.90;;;;;;2260200;61;20393;-57
2023/08/24 07:09:52;0.00;0.00;0.62;0.00;0.00;0.62;3.50;2.73;;;31.50;27.90;;;;;;2259593;61;20357;-56
2023/08/24 07:12:37;0.00;0.00;0.62;0.00;0.00;0.62;3.90;2.43;;;31.50;27.90;;;;;;2260287;61;20658;-54
2023/08/24 07:15:24;0.00;0.00;0.62;0.00;0.00;0.62;2.67;2.20;;;31.50;27.90;;;;;;2260005;61;20925;-56
2023/08/24 07:18:09;0.00;0.00;0.62;0.00;0.00;0.62;3.77;2.37;;;31.50;27.90;;;;;;2259294;61;20457;-54
2023/08/24 07:20:54;0.00;0.00;0.62;0.00;0.00;0.62;3.93;2.40;;;31.60;27.90;;;;;;2260160;61;20391;-55
2023/08/24 07:23:38;0.00;0.00;0.62;0.00;0.00;0.62;3.40;2.43;;;31.50;27.90;;;;;;2259717;61;20901;-56
2023/08/24 07:26:25;0.00;0.00;0.62;0.00;0.00;0.62;4.73;2.60;;;31.50;27.90;;;;;;2259421;61;21000;-55
2023/08/24 07:29:09;0.00;0.00;0.62;0.00;0.00;0.62;2.30;2.00;;;31.50;27.90;;;;;;2260376;61;20736;-53
2023/08/24 07:31:55;0.00;0.00;0.62;0.00;0.00;0.62;3.23;2.50;;;31.60;27.90;;;;;;2259663;61;21096;-55
2023/08/24 07:34:40;0.00;0.00;0.62;0.00;0.00;0.62;3.03;2.53;;;31.50;27.90;;;;;;2259791;61;20389;-51
2023/08/24 07:37:25;0.00;0.00;0.62;0.00;0.00;0.62;3.13;2.43;;;31.50;27.90;;;;;;2259870;61;20816;-56
2023/08/24 07:40:11;0.00;0.00;0.62;0.00;0.00;0.62;4.40;2.57;;;31.50;27.90;;;;;;2259359;61;20788;-55
2023/08/24 07:42:56;0.00;0.00;0.62;0.00;0.00;0.62;3.13;2.60;;;31.50;27.90;;;;;;2260510;61;20404;-55
2023/08/24 07:45:40;0.00;0.00;0.62;0.00;0.00;0.62;3.40;2.50;;;31.50;27.90;;;;;;2259915;61;20467;-53
2023/08/24 07:48:26;0.00;0.00;0.62;0.00;0.00;0.62;2.90;2.47;;;31.60;27.90;;;;;;2259890;61;20363;-54
2023/08/24 07:51:11;0.00;0.00;0.62;0.00;0.00;0.62;3.57;2.37;;;31.50;27.90;;;;;;2259649;61;20453;-56
2023/08/24 07:53:55;0.00;0.00;0.62;0.00;0.00;0.62;2.40;2.10;;;31.50;27.90;;;;;;2259035;61;20444;-55
2023/08/24 07:56:40;0.00;0.00;0.62;0.00;0.00;0.62;3.20;2.50;;;31.50;27.90;;;;;;2260300;61;20364;-54
2023/08/24 07:59:25;0.00;0.00;0.62;0.00;0.00;0.62;5.90;2.90;;;31.60;28.00;;;;;;2260008;61;20937;-54
2023/08/24 08:02:10;0.00;0.00;0.62;0.00;0.00;0.62;4.50;2.37;;;31.60;28.00;;;;;;2256348;61;20364;-53
2023/08/24 08:04:58;0.00;0.00;0.62;0.00;0.00;0.62;4.20;2.10;;;31.60;28.00;;;;;;2259436;61;20433;-57
2023/08/24 08:07:42;0.00;0.00;0.62;0.00;0.00;0.62;2.20;1.97;;;31.60;28.00;;;;;;2259965;61;20385;-52
2023/08/24 08:10:27;0.00;0.00;0.62;0.00;0.00;0.62;2.97;2.43;;;31.60;28.00;;;;;;2260092;61;20384;-52
2023/08/24 08:13:12;0.00;0.00;0.62;0.00;0.00;0.62;2.97;2.20;;;31.60;28.00;;;;;;2259535;61;20454;-54
2023/08/24 08:16:03;0.00;0.00;0.62;0.00;0.00;0.62;2.60;1.80;;;31.60;28.00;;;;;;2260063;61;20443;-54
2023/08/24 08:18:48;0.00;0.00;0.62;0.00;0.00;0.62;2.80;2.20;;;31.60;28.00;;;;;;2260604;61;20470;-51
2023/08/24 08:21:34;0.00;0.00;0.62;0.00;0.00;0.62;2.10;1.90;;;31.60;28.00;;;;;;2260206;61;20436;-56
2023/08/24 08:24:18;0.00;0.00;0.62;0.00;0.00;0.62;1.87;1.63;;;31.60;28.00;;;;;;2260021;61;20933;-56
2023/08/24 08:27:05;0.00;0.00;0.62;0.00;0.00;0.62;3.50;2.40;;;31.60;28.00;;;;;;2260720;61;20435;-54
2023/08/24 08:29:50;0.00;0.00;0.62;0.00;0.00;0.62;3.90;2.30;;;31.60;28.00;;;;;;2260934;61;20480;-54
2023/08/24 08:32:35;0.00;0.00;0.62;0.00;0.00;0.62;2.30;2.10;;;31.60;28.00;;;;;;2260680;61;20953;-57
2023/08/24 08:35:21;0.00;0.00;0.62;0.00;0.00;0.62;2.90;2.50;;;31.60;28.00;;;;;;2260112;61;20389;-55
2023/08/24 08:38:10;0.00;0.00;0.62;0.00;0.00;0.62;2.77;2.50;;;31.60;28.00;;;;;;2260372;61;20377;-55
2023/08/24 08:41:02;0.00;0.00;0.62;0.00;0.00;0.62;2.20;2.00;;;31.60;28.00;;;;;;2260646;61;20370;-54
2023/08/24 08:43:48;0.00;0.00;0.62;0.00;0.00;0.62;3.50;2.23;;;31.60;28.00;;;;;;2260647;61;20873;-56
2023/08/24 08:46:33;0.00;0.00;0.62;0.00;0.00;0.62;2.87;2.23;;;31.60;28.00;;;;;;2260323;61;20369;-56
2023/08/24 08:49:19;0.00;0.00;0.62;0.00;0.00;0.62;3.63;2.53;;;31.60;28.00;;;;;;2260758;61;20424;-56
2023/08/24 08:52:05;0.00;0.00;0.62;0.00;0.00;0.62;2.87;2.43;;;31.60;28.00;;;;;;2260753;61;20793;-54
2023/08/24 08:54:51;0.00;0.00;0.62;0.00;0.00;0.62;2.93;2.63;;;31.60;28.10;;;;;;2260413;61;20381;-54
2023/08/24 08:57:36;0.00;0.00;0.62;0.00;0.00;0.62;2.77;2.30;;;31.70;28.10;;;;;;2260929;61;20782;-57
2023/08/24 09:00:22;0.00;0.00;0.62;0.00;0.00;0.62;3.33;2.40;;;31.70;28.20;;;;;;2260349;61;20397;-55
2023/08/24 09:03:08;0.00;0.00;0.62;0.00;0.00;0.62;2.40;2.20;;;31.70;28.10;;;;;;2260262;61;20361;-56
2023/08/24 09:05:53;0.00;0.00;0.62;0.00;0.00;0.62;2.73;2.27;;;31.70;28.20;;;;;;2261085;61;20388;-55
2023/08/24 09:08:38;0.00;0.00;0.62;0.00;0.00;0.62;2.03;1.73;;;31.70;28.20;;;;;;2260284;61;20446;-53
2023/08/24 09:11:24;0.00;0.00;0.62;0.00;0.00;0.62;2.97;2.27;;;31.70;28.20;;;;;;2260871;61;20372;-51
2023/08/24 09:14:09;0.00;0.00;0.62;0.00;0.00;0.62;2.70;2.30;;;31.70;28.20;;;;;;2260458;61;20411;-57
2023/08/24 09:16:54;0.00;0.00;0.62;0.00;0.00;0.62;2.80;2.03;;;31.70;28.20;;;;;;2260342;61;20924;-57
2023/08/24 09:19:38;0.00;0.00;0.62;0.00;0.00;0.62;2.40;2.13;;;31.70;28.20;;;;;;2261013;61;20389;-56
2023/08/24 09:22:23;0.00;0.00;0.62;0.00;0.00;0.62;2.40;2.10;;;31.70;28.20;;;;;;2260581;61;20768;-56
2023/08/24 09:25:10;0.00;0.00;0.62;0.00;0.00;0.62;2.40;1.90;;;31.70;28.20;;;;;;2260255;61;20408;-55
2023/08/24 09:28:01;0.00;0.00;0.62;0.00;0.00;0.62;2.43;2.23;;;31.70;28.20;;;;;;2260917;61;20373;-55
2023/08/24 09:30:46;0.00;0.00;0.62;0.00;0.00;0.62;2.80;2.50;;;31.70;28.30;;;;;;2260287;61;20361;-55
2023/08/24 09:33:31;0.00;0.00;0.62;0.00;0.00;0.62;3.10;2.33;;;31.70;28.20;;;;;;2260489;61;20341;-56
2023/08/24 09:36:16;0.00;0.00;0.62;0.00;0.00;0.62;4.13;2.40;;;31.70;28.20;;;;;;2260795;61;20388;-54
2023/08/24 09:39:04;0.00;0.00;0.62;0.00;0.00;0.62;3.60;2.57;;;31.80;28.30;;;;;;2260419;61;20385;-53
2023/08/24 09:41:50;0.00;0.00;0.62;0.00;0.00;0.62;2.67;2.33;;;31.70;28.30;;;;;;2260639;61;20916;-55
2023/08/24 09:44:37;0.00;0.00;0.62;0.00;0.00;0.62;2.33;2.13;;;31.80;28.40;;;;;;2259643;61;20392;-55
2023/08/24 09:47:22;0.00;0.00;0.62;0.00;0.00;0.62;2.50;2.30;;;31.70;28.30;;;;;;2260571;61;20373;-53
2023/08/24 09:50:08;0.00;0.00;0.62;0.00;0.00;0.62;2.93;2.73;;;31.70;28.30;;;;;;2260177;61;20381;-52
2023/08/24 09:52:57;0.00;0.00;0.62;0.00;0.00;0.62;3.00;2.40;;;31.80;28.40;;;;;;2260110;61;20365;-55
2023/08/24 09:55:48;0.00;0.00;0.62;0.00;0.00;0.62;4.00;2.80;;;31.80;28.40;;;;;;2260865;61;20416;-56
2023/08/24 09:58:33;0.00;0.00;0.62;0.00;0.00;0.62;3.17;2.50;;;31.80;28.40;;;;;;2260573;61;20389;-54
2023/08/24 10:01:20;0.00;0.00;0.62;0.00;0.00;0.62;3.90;2.80;;;31.80;28.40;;;;;;2260544;61;20400;-55
2023/08/24 10:04:07;0.00;0.00;0.62;0.00;0.00;0.62;3.07;2.60;;;31.80;28.40;;;;;;2260827;61;20365;-53
2023/08/24 10:06:58;0.00;0.00;0.62;0.00;0.00;0.62;3.07;2.77;;;31.80;28.40;;;;;;2260182;61;20488;-54
2023/08/24 10:09:55;0.00;0.00;0.62;0.00;0.00;0.62;2.67;2.47;;;31.80;28.50;;;;;;2260220;61;20368;-54
2023/08/24 10:12:47;0.00;0.00;0.62;0.00;0.00;0.62;4.53;2.53;;;31.80;28.50;;;;;;2261025;61;20381;-53
2023/08/24 10:15:33;0.00;0.00;0.62;0.00;0.00;0.62;2.70;2.50;;;31.80;28.40;;;;;;2260301;61;20785;-61
2023/08/24 10:18:20;0.00;0.00;0.62;0.00;0.00;0.62;8.23;2.63;;;31.80;28.50;;;;;;2260876;61;20916;-50
2023/08/24 10:21:05;0.00;0.00;0.62;0.00;0.00;0.62;4.53;2.60;;;31.80;28.50;;;;;;2260512;61;20373;-56
2023/08/24 10:23:49;0.00;0.00;0.62;0.00;0.00;0.62;3.03;2.30;;;31.90;28.50;;;;;;2260319;61;20396;-56
2023/08/24 10:26:35;0.00;0.00;0.62;0.00;0.00;0.62;2.80;2.50;;;31.90;28.50;;;;;;2260820;61;20380;-54
2023/08/24 10:29:20;0.00;0.00;0.62;0.00;0.00;0.62;2.93;2.37;;;31.90;28.40;;;;;;2260486;61;20403;-54
2023/08/24 10:32:08;0.00;0.00;0.62;0.00;0.00;0.62;2.90;2.60;;;31.90;28.40;;;;;;2260858;61;20451;-53
2023/08/24 10:34:54;0.00;0.00;0.62;0.00;0.00;0.62;2.90;2.70;;;31.90;28.40;;;;;;2260550;61;20443;-56
2023/08/24 10:37:39;0.00;0.00;0.62;0.00;0.00;0.62;2.70;2.50;;;32.00;28.50;;;;;;2260163;61;20364;-54
2023/08/24 10:40:32;0.00;0.00;0.62;0.00;0.00;0.62;2.80;2.60;;;32.00;28.50;;;;;;2260603;61;20369;-56
2023/08/24 10:43:17;0.00;0.00;0.62;0.00;0.00;0.62;3.27;2.40;;;32.00;28.50;;;;;;2260340;61;20369;-61
2023/08/24 10:46:03;0.00;0.00;0.62;0.00;0.00;0.62;3.93;2.47;;;32.00;28.50;;;;;;2260595;61;20384;-54
2023/08/24 10:48:58;0.00;0.00;0.62;0.00;0.00;0.62;2.43;2.23;;;32.00;28.50;;;;;;2260445;61;20365;-57
2023/08/24 10:51:45;0.00;0.00;0.62;0.00;0.00;0.62;2.70;2.50;;;32.00;28.50;;;;;;2260333;61;20361;-56
2023/08/24 10:54:31;0.00;0.00;0.62;0.00;0.00;0.62;2.67;2.30;;;32.10;28.50;;;;;;2260136;61;20411;-56